Time;durP1;ratioP1;P1;durP2;ratioP2;P2;SDS_P1;SDS_P2;PMS_P1;PMS_P2;Temp;Humidity;BMP_temperature;BMP_pressure;BME280_temperature;BME280_humidity;BME280_pressure;Samples;Min_cycle;Max_cycle;Signal;HPM_P1;HPM_P2
2023/06/19 00:00:53;;;;;;;1.17;1.08;;;23.80;93.30;;;;;;5072261;28;20214;-73
2023/06/19 00:03:21;;;;;;;0.88;0.80;;;23.80;93.30;;;;;;5072082;28;20209;-73
2023/06/19 00:05:49;;;;;;;1.17;1.08;;;23.80;94.00;;;;;;5072226;28;20213;-72
2023/06/19 00:08:18;;;;;;;1.35;1.25;;;23.80;94.20;;;;;;5073755;28;20292;-71
2023/06/19 00:10:46;;;;;;;2.00;1.58;;;23.80;94.40;;;;;;5063649;28;20211;-71
2023/06/19 00:13:14;;;;;;;0.95;0.95;;;23.80;94.50;;;;;;5075956;28;20206;-71
2023/06/19 00:15:43;;;;;;;1.90;1.58;;;23.70;94.70;;;;;;5071963;28;20207;-71
2023/06/19 00:18:11;;;;;;;0.95;0.80;;;23.70;94.50;;;;;;5071627;28;20242;-71
2023/06/19 00:20:39;;;;;;;0.90;0.80;;;23.60;95.00;;;;;;5066821;28;20301;-73
2023/06/19 00:23:11;;;;;;;1.35;0.85;;;23.50;95.00;;;;;;5057440;28;20227;-74
2023/06/19 00:25:41;;;;;;;1.63;0.95;;;23.60;95.10;;;;;;5051436;28;20217;-75
2023/06/19 00:28:11;;;;;;;2.05;1.40;;;23.60;95.30;;;;;;5058358;28;20234;-73
2023/06/19 00:30:39;;;;;;;2.38;1.33;;;23.60;95.20;;;;;;5051636;28;20210;-72
2023/06/19 00:33:07;;;;;;;1.50;1.40;;;23.60;95.40;;;;;;5052048;28;20303;-71
2023/06/19 00:35:35;;;;;;;1.23;1.13;;;23.60;95.60;;;;;;5051343;28;20669;-72
2023/06/19 00:38:03;;;;;;;1.38;1.27;;;23.60;95.60;;;;;;5051621;28;20317;-71
2023/06/19 00:40:33;;;;;;;0.82;0.82;;;23.50;95.80;;;;;;5068626;28;20669;-70
2023/06/19 00:43:02;;;;;;;1.10;1.10;;;23.60;95.80;;;;;;5071485;28;20298;-71
2023/06/19 00:45:37;;;;;;;0.98;0.88;;;23.60;95.50;;;;;;5070960;28;20227;-71
2023/06/19 00:48:05;;;;;;;1.00;0.95;;;23.60;95.50;;;;;;5052314;28;20223;-71
2023/06/19 00:50:33;;;;;;;1.05;0.95;;;23.60;95.20;;;;;;5050755;28;20207;-72
2023/06/19 00:53:04;;;;;;;2.15;1.25;;;23.60;95.30;;;;;;5064624;28;20209;-73
2023/06/19 00:55:34;;;;;;;1.55;1.25;;;23.70;95.30;;;;;;5070904;28;20214;-72
2023/06/19 00:58:04;;;;;;;1.50;1.40;;;23.60;95.20;;;;;;5071390;28;20287;-75
2023/06/19 01:00:32;;;;;;;2.35;1.67;;;23.50;95.10;;;;;;5070698;28;20213;-75
2023/06/19 01:03:00;;;;;;;1.52;1.42;;;23.40;94.80;;;;;;5069082;28;20245;-74
2023/06/19 01:05:28;;;;;;;1.00;0.93;;;23.50;95.00;;;;;;5050534;28;20205;-75
2023/06/19 01:08:00;;;;;;;1.20;1.10;;;23.40;94.50;;;;;;5051038;28;20223;-75
2023/06/19 01:10:31;;;;;;;1.40;0.80;;;23.40;94.30;;;;;;5050480;28;20601;-75
2023/06/19 01:13:05;;;;;;;1.38;1.20;;;23.50;94.20;;;;;;5051319;28;20209;-76
2023/06/19 01:15:33;;;;;;;0.93;0.88;;;23.50;94.10;;;;;;5050643;28;20209;-75
2023/06/19 01:18:02;;;;;;;0.93;0.77;;;23.40;94.20;;;;;;5060018;28;20237;-75
2023/06/19 01:20:31;;;;;;;1.73;1.17;;;23.40;94.40;;;;;;5069887;28;20595;-74
2023/06/19 01:23:08;;;;;;;1.30;1.20;;;23.40;94.50;;;;;;5070704;28;20215;-71
2023/06/19 01:25:36;;;;;;;1.25;1.13;;;23.40;94.60;;;;;;5070526;28;20217;-72
2023/06/19 01:28:05;;;;;;;2.55;1.10;;;23.40;94.70;;;;;;5070829;28;20232;-71
2023/06/19 01:30:34;;;;;;;0.95;0.85;;;23.40;94.70;;;;;;5069452;28;20218;-72
2023/06/19 01:33:08;;;;;;;1.80;1.45;;;23.40;95.10;;;;;;5070813;28;20289;-71
2023/06/19 01:35:39;;;;;;;3.63;1.45;;;23.30;95.30;;;;;;5070259;28;20247;-71
2023/06/19 01:38:09;;;;;;;1.60;0.88;;;23.30;95.50;;;;;;5075157;28;20282;-70
2023/06/19 01:40:38;;;;;;;1.88;1.30;;;23.30;95.50;;;;;;5070026;28;20665;-71
2023/06/19 01:43:13;;;;;;;0.80;0.80;;;23.20;95.80;;;;;;5070528;28;20221;-71
2023/06/19 01:45:41;;;;;;;1.45;1.35;;;23.10;96.30;;;;;;5070062;28;20690;-71
2023/06/19 01:48:09;;;;;;;0.98;0.98;;;23.00;96.90;;;;;;5070370;28;20229;-71
2023/06/19 01:50:37;;;;;;;1.02;1.00;;;22.90;97.50;;;;;;5069821;28;20225;-70
2023/06/19 01:53:05;;;;;;;1.70;0.80;;;22.90;97.70;;;;;;5070296;28;20729;-70
2023/06/19 01:55:35;;;;;;;0.80;0.73;;;22.80;97.90;;;;;;5074539;28;20209;-70
2023/06/19 01:58:02;;;;;;;1.35;1.15;;;22.70;98.10;;;;;;5070518;28;20231;-70
2023/06/19 02:00:35;;;;;;;1.20;1.10;;;22.70;98.20;;;;;;5069729;28;20209;-70
2023/06/19 02:03:03;;;;;;;0.80;0.70;;;22.70;98.70;;;;;;5070521;28;20221;-70
2023/06/19 02:05:31;;;;;;;0.68;0.60;;;22.70;98.80;;;;;;5069795;28;20753;-73
2023/06/19 02:07:59;;;;;;;0.70;0.68;;;22.60;99.30;;;;;;5070055;28;20233;-73
2023/06/19 02:10:27;;;;;;;1.70;1.60;;;22.50;99.20;;;;;;5073225;28;20228;-73
2023/06/19 02:12:56;;;;;;;1.25;1.15;;;22.20;99.20;;;;;;5068687;28;20203;-73
2023/06/19 02:15:24;;;;;;;2.20;1.50;;;22.10;99.60;;;;;;5070234;28;20241;-73
2023/06/19 02:17:54;;;;;;;1.20;1.10;;;22.00;99.80;;;;;;5069793;28;20244;-73
2023/06/19 02:20:24;;;;;;;1.55;0.85;;;22.00;99.90;;;;;;5069957;28;20212;-73
2023/06/19 02:22:52;;;;;;;1.08;0.98;;;21.90;99.90;;;;;;5069953;28;20230;-72
2023/06/19 02:25:20;;;;;;;1.20;1.10;;;21.90;99.90;;;;;;5070598;28;20212;-72
2023/06/19 02:27:48;;;;;;;1.33;1.23;;;21.90;99.90;;;;;;5070451;28;20230;-73
2023/06/19 02:30:18;;;;;;;1.60;1.50;;;21.90;99.90;;;;;;5074889;28;20208;-73
2023/06/19 02:32:45;;;;;;;1.73;1.20;;;21.80;99.90;;;;;;5069768;28;20212;-73
2023/06/19 02:35:15;;;;;;;2.05;1.23;;;21.90;99.90;;;;;;5069842;28;20220;-73
2023/06/19 02:37:46;;;;;;;0.98;0.88;;;21.90;99.90;;;;;;5069004;28;20712;-73
2023/06/19 02:40:14;;;;;;;1.42;1.33;;;21.90;99.90;;;;;;5064931;28;20237;-73
2023/06/19 02:42:42;;;;;;;1.17;1.08;;;21.90;99.90;;;;;;5073744;28;20228;-73
2023/06/19 02:45:10;;;;;;;2.03;0.80;;;22.00;99.90;;;;;;5076300;28;20300;-73
2023/06/19 02:47:40;;;;;;;1.48;0.93;;;21.90;99.90;;;;;;5075762;28;20241;-73
2023/06/19 02:50:08;;;;;;;1.23;0.82;;;21.90;99.90;;;;;;5073475;28;20206;-73
2023/06/19 02:52:36;;;;;;;1.27;1.17;;;21.90;99.90;;;;;;5073387;28;20232;-73
2023/06/19 02:55:07;;;;;;;1.58;1.00;;;21.90;99.90;;;;;;5073655;28;20260;-73
2023/06/19 02:57:35;;;;;;;2.40;1.00;;;21.90;99.90;;;;;;5073534;28;20229;-73
2023/06/19 03:00:05;;;;;;;1.55;1.00;;;22.00;99.90;;;;;;5072990;28;20205;-73
2023/06/19 03:02:34;;;;;;;1.30;1.20;;;22.00;99.90;;;;;;5078819;28;20213;-73
2023/06/19 03:05:03;;;;;;;0.88;0.88;;;22.00;99.90;;;;;;5073494;28;20295;-73
2023/06/19 03:07:32;;;;;;;1.50;1.40;;;22.00;99.90;;;;;;5073133;28;20235;-73
2023/06/19 03:10:00;;;;;;;1.02;0.85;;;21.90;99.90;;;;;;5073187;28;20209;-74
2023/06/19 03:12:28;;;;;;;0.75;0.75;;;21.90;99.90;;;;;;5073185;28;20208;-73
2023/06/19 03:14:55;;;;;;;1.20;0.88;;;21.90;99.90;;;;;;5073033;28;20701;-74
2023/06/19 03:17:23;;;;;;;0.80;0.70;;;21.80;99.90;;;;;;5073078;28;20671;-74
2023/06/19 03:19:51;;;;;;;0.80;0.77;;;21.80;99.90;;;;;;5072683;28;21097;-73
2023/06/19 03:22:21;;;;;;;1.73;1.00;;;21.80;99.90;;;;;;5073110;28;20213;-73
2023/06/19 03:24:49;;;;;;;1.20;1.02;;;21.90;99.90;;;;;;5081182;28;20635;-75
2023/06/19 03:27:17;;;;;;;1.77;1.67;;;21.90;99.90;;;;;;5073333;28;20231;-73
2023/06/19 03:29:45;;;;;;;1.15;1.05;;;21.80;99.90;;;;;;5072626;28;20284;-73
2023/06/19 03:32:13;;;;;;;0.70;0.70;;;21.80;99.90;;;;;;5073200;28;20216;-73
2023/06/19 03:34:41;;;;;;;1.30;1.17;;;21.80;99.90;;;;;;5072783;28;20205;-73
2023/06/19 03:37:09;;;;;;;2.00;1.05;;;21.90;99.90;;;;;;5073382;28;20206;-72
2023/06/19 03:39:38;;;;;;;1.20;0.90;;;21.80;99.90;;;;;;5083044;28;20209;-72
2023/06/19 03:42:07;;;;;;;0.82;0.80;;;21.80;99.90;;;;;;5063702;28;20280;-71
2023/06/19 03:44:35;;;;;;;1.60;1.50;;;21.90;99.90;;;;;;5070065;28;20710;-73
2023/06/19 03:47:03;;;;;;;1.10;1.00;;;21.90;99.90;;;;;;5072894;28;20220;-74
2023/06/19 03:49:31;;;;;;;1.23;1.13;;;21.80;99.90;;;;;;5072514;28;20666;-72
2023/06/19 03:51:59;;;;;;;0.95;0.80;;;21.90;99.90;;;;;;5065838;28;20290;-72
2023/06/19 03:54:27;;;;;;;1.20;0.95;;;21.90;99.90;;;;;;5073093;28;20201;-74
2023/06/19 03:56:56;;;;;;;0.70;0.50;;;21.90;99.90;;;;;;5072911;28;20215;-73
2023/06/19 03:59:24;;;;;;;1.13;1.02;;;21.90;99.90;;;;;;5072526;28;20209;-73
2023/06/19 04:01:52;;;;;;;1.33;1.23;;;21.90;99.90;;;;;;5068315;28;20688;-72
2023/06/19 04:04:20;;;;;;;0.70;0.70;;;21.80;99.90;;;;;;5077484;28;20224;-73
2023/06/19 04:06:48;;;;;;;0.80;0.80;;;21.80;99.90;;;;;;5072008;28;20667;-73
2023/06/19 04:09:16;;;;;;;1.20;1.10;;;21.70;99.90;;;;;;5069707;28;20205;-73
2023/06/19 04:11:44;;;;;;;1.17;1.08;;;21.70;99.90;;;;;;5081286;28;20200;-73
2023/06/19 04:14:13;;;;;;;1.20;0.90;;;21.70;99.90;;;;;;5087163;28;20207;-74
2023/06/19 04:16:41;;;;;;;1.98;1.75;;;21.90;99.90;;;;;;5084095;28;20580;-74
2023/06/19 04:19:09;;;;;;;0.80;0.70;;;22.10;99.90;;;;;;5070930;28;20244;-74
2023/06/19 04:21:37;;;;;;;1.00;1.00;;;22.00;99.90;;;;;;5076702;28;20209;-75
2023/06/19 04:24:08;;;;;;;0.82;0.80;;;21.90;99.90;;;;;;5075454;28;20216;-76
2023/06/19 04:26:36;;;;;;;1.25;1.00;;;21.80;99.90;;;;;;5084939;28;20204;-74
2023/06/19 04:29:06;;;;;;;1.38;1.27;;;21.80;99.90;;;;;;5075816;28;20233;-73
2023/06/19 04:31:40;;;;;;;0.82;0.82;;;21.70;99.90;;;;;;5075292;28;20204;-74
2023/06/19 04:34:09;;;;;;;0.70;0.70;;;21.60;99.90;;;;;;5064951;28;20568;-74
2023/06/19 04:36:37;;;;;;;0.70;0.65;;;21.60;99.90;;;;;;5071442;28;20212;-73
2023/06/19 04:39:05;;;;;;;0.75;0.63;;;21.60;99.90;;;;;;5059781;28;20224;-73
2023/06/19 04:41:33;;;;;;;0.60;0.60;;;21.50;99.90;;;;;;5053780;28;20212;-73
2023/06/19 04:44:03;;;;;;;0.85;0.75;;;21.50;99.90;;;;;;5057427;28;20732;-73
2023/06/19 04:46:31;;;;;;;1.02;1.02;;;21.50;99.90;;;;;;5055279;28;20676;-73
2023/06/19 04:49:00;;;;;;;0.80;0.75;;;21.50;99.90;;;;;;5057431;28;20226;-73
2023/06/19 04:51:29;;;;;;;1.08;0.93;;;21.60;99.90;;;;;;5058433;28;20208;-74
2023/06/19 04:53:57;;;;;;;0.75;0.75;;;21.60;99.90;;;;;;5058623;28;20212;-74
2023/06/19 04:56:25;;;;;;;1.73;1.38;;;21.60;99.90;;;;;;5057176;28;20224;-74
2023/06/19 04:58:57;;;;;;;1.58;1.35;;;21.60;99.90;;;;;;5058474;28;20219;-74
2023/06/19 05:01:27;;;;;;;1.30;1.20;;;21.70;99.90;;;;;;5059984;28;20270;-74
2023/06/19 05:03:56;;;;;;;0.70;0.60;;;21.80;99.90;;;;;;5058682;28;20326;-74
2023/06/19 05:06:26;;;;;;;1.40;0.90;;;21.80;99.90;;;;;;5037410;28;20774;-75
2023/06/19 05:08:54;;;;;;;1.00;1.00;;;21.70;99.90;;;;;;5058232;28;20231;-74
